Pitangui, Brazil
Current Conditions -  °F | °C
As of 12:00 PM on Thursday 18 Dec 2014 (Local Time) from SBMO Reporting Station
Broken Clouds Broken Clouds  
Wind Chill: 86°   Ceiling: 10000
Heat Index: 88°   Visibility: 6mi
Dew Point: 66°   Wind: 12mph
Humidity: 51%   Direction: 90°E
Pressure: 29.91"   Gusts: NA
Location:  9.08°S, 35.27°W
Report Text: SBMO 181500Z 09010KT 9999 SCT020 BKN100 30/19 Q1013
Loading
Personal Weather Stations






























Interactive Weather Map New forecast layout! Learn more

10-Day Weather Forecast

Advertisements
Track Severe Weather on mobile